createdAt,value
2022-12-25T05:02:19.563Z,5.53
2022-12-25T05:06:22.248Z,5.47
2022-12-25T05:10:24.994Z,6.47
2022-12-25T05:14:27.774Z,5.63
2022-12-25T05:18:31.563Z,5.43
2022-12-25T05:22:34.184Z,6.53
2022-12-25T05:26:36.689Z,5.47
2022-12-25T05:30:39.284Z,5.85
2022-12-25T05:34:43.203Z,4.90
2022-12-25T05:38:45.724Z,4.60
2022-12-25T05:42:48.204Z,4.47
2022-12-25T05:46:50.984Z,4.80
2022-12-25T05:50:54.858Z,4.88
2022-12-25T05:54:57.349Z,5.10
2022-12-25T05:58:59.899Z,5.30
2022-12-25T06:03:02.715Z,5.13
2022-12-25T06:07:06.627Z,4.63
2022-12-25T06:11:10.139Z,4.78
2022-12-25T06:19:15.242Z,4.50
2022-12-25T06:23:19.191Z,4.35
2022-12-25T06:27:21.733Z,4.28
2022-12-25T06:31:25.065Z,4.65
2022-12-25T06:35:27.697Z,4.88
2022-12-25T06:39:31.845Z,3.63
2022-12-25T06:43:34.431Z,4.20
2022-12-25T06:47:37.729Z,4.73
2022-12-25T06:51:40.259Z,4.10
2022-12-25T06:55:44.070Z,4.10
2022-12-25T06:59:52.992Z,4.20
2022-12-25T07:03:59.625Z,3.40
2022-12-25T07:08:02.366Z,4.07
2022-12-25T07:12:07.722Z,4.67
2022-12-25T07:16:12.013Z,4.30
2022-12-25T07:20:14.717Z,3.90
2022-12-25T07:24:19.575Z,4.20
2022-12-25T07:28:23.681Z,4.63
2022-12-25T07:32:26.189Z,4.30
2022-12-25T07:36:29.152Z,3.92
2022-12-25T07:40:31.699Z,4.28
2022-12-25T07:44:35.772Z,3.97
2022-12-25T07:48:38.601Z,4.10
2022-12-25T07:52:43.594Z,4.18
2022-12-25T07:56:46.536Z,3.97
2022-12-25T08:00:50.684Z,3.93
2022-12-25T08:04:53.263Z,3.85
2022-12-25T08:08:56.024Z,4.63
2022-12-25T08:12:58.543Z,4.13
2022-12-25T08:17:02.507Z,4.03
2022-12-25T08:21:06.356Z,3.80
2022-12-25T08:25:09.775Z,3.92
2022-12-25T08:29:12.294Z,3.33
2022-12-25T08:33:16.092Z,4.13
2022-12-25T08:37:18.607Z,4.35
2022-12-25T08:41:21.159Z,4.18
2022-12-25T08:45:23.659Z,3.42
2022-12-25T08:49:29.049Z,3.75
2022-12-25T08:53:31.814Z,3.58
2022-12-25T08:57:34.308Z,3.40
2022-12-25T09:01:36.861Z,3.08
2022-12-25T09:05:40.745Z,3.30
2022-12-25T09:09:43.600Z,3.58
2022-12-25T09:13:46.405Z,3.63
2022-12-25T09:17:48.880Z,4.03
2022-12-25T09:21:52.708Z,3.67
2022-12-25T09:25:55.243Z,3.55
2022-12-25T09:29:57.730Z,2.80
2022-12-25T09:34:00.299Z,3.50
2022-12-25T09:38:04.103Z,2.90
2022-12-25T09:42:12.991Z,3.58
2022-12-25T09:46:19.351Z,3.30
2022-12-25T09:50:26.796Z,3.50
2022-12-25T09:54:42.566Z,3.22
2022-12-25T09:58:46.177Z,3.67
2022-12-25T10:03:07.244Z,3.13
2022-12-25T10:07:27.972Z,3.00
2022-12-25T10:11:44.957Z,3.30
2022-12-25T10:15:55.288Z,2.67
2022-12-25T10:20:08.297Z,2.83
2022-12-25T10:24:21.385Z,3.05
2022-12-25T10:28:30.687Z,3.17
2022-12-25T10:32:33.946Z,4.15
2022-12-25T10:36:36.526Z,3.60
2022-12-25T10:40:46.893Z,3.65
2022-12-25T10:44:58.684Z,4.57
2022-12-25T10:49:03.875Z,3.53
2022-12-25T10:53:09.329Z,4.28
2022-12-25T10:57:16.375Z,4.43
2022-12-25T11:01:20.406Z,3.17
2022-12-25T11:05:29.254Z,3.47
2022-12-25T11:09:32.309Z,3.85
2022-12-25T11:13:38.115Z,3.45
2022-12-25T11:17:50.004Z,3.30
2022-12-25T11:21:53.918Z,2.92
2022-12-25T11:25:58.738Z,3.13
2022-12-25T11:30:04.071Z,3.03
2022-12-25T11:34:14.978Z,2.90
2022-12-25T11:38:17.497Z,2.85
2022-12-25T11:42:26.307Z,2.92
2022-12-25T11:46:32.961Z,2.90
2022-12-25T11:50:42.042Z,3.17
2022-12-25T11:54:52.635Z,3.63
2022-12-25T11:58:57.818Z,3.47
2022-12-25T12:03:04.529Z,3.42
2022-12-25T12:07:18.002Z,4.05
2022-12-25T12:11:25.683Z,3.38
2022-12-25T12:15:31.513Z,4.13
2022-12-25T12:19:34.685Z,3.22
2022-12-25T12:23:50.668Z,2.90
2022-12-25T12:28:01.269Z,4.03
2022-12-25T12:32:26.498Z,3.17
2022-12-25T12:36:35.948Z,3.15
2022-12-25T12:40:44.253Z,3.10
2022-12-25T12:44:48.793Z,2.90
2022-12-25T12:48:54.493Z,3.60
2022-12-25T12:52:57.359Z,2.85
2022-12-25T12:57:02.933Z,3.58
2022-12-25T13:01:16.880Z,2.83
2022-12-25T13:05:34.217Z,3.00
2022-12-25T13:09:53.600Z,2.72
2022-12-25T13:14:01.546Z,2.72
2022-12-25T13:18:07.636Z,2.72
2022-12-25T13:22:24.308Z,3.05
2022-12-25T13:26:27.327Z,2.85
2022-12-25T13:30:31.509Z,2.78
2022-12-25T13:34:37.932Z,3.33
2022-12-25T13:38:45.175Z,3.33
2022-12-25T13:42:50.227Z,3.20
2022-12-25T13:46:54.297Z,3.15
2022-12-25T13:50:58.545Z,2.65
2022-12-25T13:55:03.194Z,2.72
2022-12-25T13:59:05.858Z,3.03
2022-12-25T14:03:19.126Z,2.90
2022-12-25T14:07:24.189Z,3.15
2022-12-25T14:11:30.489Z,2.55
2022-12-25T14:15:36.290Z,3.35
2022-12-25T14:19:40.590Z,3.05
2022-12-25T14:23:46.007Z,3.05
2022-12-25T14:27:53.577Z,2.85
2022-12-25T14:32:00.466Z,2.63
2022-12-25T14:36:04.926Z,3.47
2022-12-25T14:40:22.524Z,2.75
2022-12-25T14:44:36.736Z,2.60
2022-12-25T14:48:39.286Z,3.13
2022-12-25T14:52:46.199Z,2.67
2022-12-25T14:56:50.151Z,2.90
2022-12-25T15:00:56.333Z,3.22
2022-12-25T15:04:58.917Z,2.40
2022-12-25T15:09:04.745Z,2.65
2022-12-25T15:13:07.440Z,3.00
2022-12-25T15:17:26.336Z,2.87
2022-12-25T15:21:32.417Z,2.83
2022-12-25T15:25:36.212Z,2.60
2022-12-25T15:30:08.448Z,2.80
2022-12-25T15:34:04.157Z,3.20
2022-12-25T15:38:06.802Z,2.70
2022-12-25T15:42:15.421Z,2.63
2022-12-25T15:46:20.432Z,2.63
2022-12-25T15:50:23.343Z,3.20
2022-12-25T15:54:25.889Z,2.95
2022-12-25T15:58:29.878Z,3.25
2022-12-25T16:02:32.495Z,3.17
2022-12-25T16:06:35.203Z,3.60
2022-12-25T16:10:39.088Z,3.47
2022-12-25T16:14:44.285Z,3.40
2022-12-25T16:18:47.597Z,3.20
2022-12-25T16:22:50.449Z,3.38
2022-12-25T16:26:53.041Z,3.95
2022-12-25T16:30:56.918Z,3.50
2022-12-25T16:34:59.445Z,3.97
2022-12-25T16:39:02.400Z,3.50
2022-12-25T16:43:04.966Z,3.70
2022-12-25T16:47:08.777Z,3.57
2022-12-25T16:51:12.213Z,3.47
2022-12-25T16:59:17.903Z,3.85
2022-12-25T17:03:21.838Z,3.50
2022-12-25T17:07:24.448Z,3.63
2022-12-25T17:11:29.773Z,3.67
2022-12-25T17:15:32.583Z,3.10
2022-12-25T17:19:36.506Z,4.53
2022-12-25T17:23:39.372Z,4.15
2022-12-25T17:27:41.890Z,3.90
2022-12-25T17:31:44.864Z,3.75
2022-12-25T17:35:48.715Z,4.00
2022-12-25T17:39:51.350Z,3.85
2022-12-25T17:43:54.340Z,3.90
2022-12-25T17:47:57.455Z,4.13
2022-12-25T17:52:03.752Z,3.60
2022-12-25T17:56:07.571Z,3.58
2022-12-25T18:00:10.965Z,3.50
2022-12-25T18:08:17.533Z,3.78
2022-12-25T18:12:20.378Z,3.80
2022-12-25T18:16:25.143Z,4.00
2022-12-25T18:20:35.871Z,4.35
2022-12-25T18:24:43.626Z,4.70
2022-12-25T18:28:46.649Z,4.53
2022-12-25T18:32:49.309Z,3.88
2022-12-25T18:36:53.644Z,3.70
2022-12-25T18:40:58.713Z,4.13
2022-12-25T18:45:01.737Z,4.03
2022-12-25T18:49:04.362Z,3.85
2022-12-25T18:53:08.972Z,4.47
2022-12-25T18:57:13.104Z,4.10
2022-12-25T19:01:18.124Z,4.30
2022-12-25T19:05:20.935Z,3.80
2022-12-25T19:09:23.790Z,4.30
2022-12-25T19:13:28.828Z,3.58
2022-12-25T19:17:32.357Z,4.07
2022-12-25T19:21:35.115Z,3.67
2022-12-25T19:25:39.956Z,3.33
2022-12-25T19:29:43.782Z,3.80
2022-12-25T19:33:46.341Z,3.80
2022-12-25T19:37:48.872Z,3.95
2022-12-25T19:41:51.666Z,3.85
2022-12-25T19:45:57.132Z,4.32
2022-12-25T19:50:02.909Z,3.88
2022-12-25T19:54:07.074Z,4.10
2022-12-25T20:02:13.609Z,3.70
2022-12-25T20:06:23.321Z,4.13
2022-12-25T20:10:26.039Z,4.30
2022-12-25T20:14:28.837Z,4.10
2022-12-25T20:18:32.839Z,4.57
2022-12-25T20:22:35.437Z,4.00
2022-12-25T20:26:39.508Z,4.40
2022-12-25T20:30:42.377Z,4.13
2022-12-25T20:34:46.229Z,4.10
2022-12-25T20:38:49.159Z,3.47
2022-12-25T20:42:51.741Z,3.25
2022-12-25T20:46:54.828Z,3.63
2022-12-25T20:51:08.167Z,4.00
2022-12-25T20:55:10.686Z,4.25
2022-12-25T20:59:13.268Z,4.03
2022-12-25T21:03:16.640Z,3.67
2022-12-25T21:07:20.979Z,3.33
2022-12-25T21:11:23.794Z,3.72
2022-12-25T21:15:26.307Z,3.88
2022-12-25T21:19:28.845Z,3.58
2022-12-25T21:23:33.094Z,3.85
2022-12-25T21:27:35.590Z,4.00
2022-12-25T21:31:52.103Z,3.75
2022-12-25T21:35:55.412Z,3.83
2022-12-25T21:39:59.474Z,3.63
2022-12-25T21:44:02.360Z,3.67
2022-12-25T21:48:05.620Z,3.40
2022-12-25T21:52:07.199Z,3.67
2022-12-25T21:56:11.140Z,3.25
